createdAt,value
2022-12-16T00:01:36.223Z,-2.51
2022-12-16T00:06:37.652Z,-2.56
2022-12-16T00:11:39.419Z,-2.57
2022-12-16T00:16:40.875Z,-2.45
2022-12-16T00:21:42.230Z,-2.62
2022-12-16T00:26:43.547Z,-2.58
2022-12-16T00:31:48.063Z,-2.49
2022-12-16T00:36:49.724Z,-2.57
2022-12-16T00:41:51.532Z,-2.62
2022-12-16T00:46:53.304Z,-2.60
2022-12-16T00:51:56.434Z,-2.45
2022-12-16T00:56:57.790Z,-2.39
2022-12-16T01:01:59.312Z,-2.39
2022-12-16T01:07:00.945Z,-2.42
2022-12-16T01:12:02.595Z,-2.40
2022-12-16T01:17:03.948Z,-2.32
2022-12-16T01:22:05.325Z,-2.33
2022-12-16T01:27:06.687Z,-2.36
2022-12-16T01:32:12.346Z,-2.30
2022-12-16T01:37:13.799Z,-2.38
2022-12-16T01:42:17.811Z,-2.39
2022-12-16T01:47:30.565Z,-2.34
2022-12-16T01:52:36.954Z,-2.33
2022-12-16T01:57:47.073Z,-2.32
2022-12-16T02:02:49.398Z,-2.27
2022-12-16T02:08:12.178Z,-2.31
2022-12-16T02:13:13.847Z,-2.32
2022-12-16T02:18:37.320Z,-2.42
2022-12-16T02:24:04.879Z,-2.44
2022-12-16T02:29:24.644Z,-2.42
2022-12-16T02:34:37.703Z,-2.46
2022-12-16T02:39:52.255Z,-2.50
2022-12-16T02:45:01.696Z,-2.60
2022-12-16T02:50:03.531Z,-2.51
2022-12-16T02:55:09.003Z,-2.49
2022-12-16T03:00:17.092Z,-2.51
2022-12-16T03:05:27.896Z,-2.50
2022-12-16T03:10:34.340Z,-2.50
2022-12-16T03:15:36.537Z,-2.51
2022-12-16T03:20:50.008Z,-2.53
2022-12-16T03:25:57.108Z,-2.48
2022-12-16T03:31:12.370Z,-2.45
2022-12-16T03:36:21.359Z,-2.47
2022-12-16T03:41:24.336Z,-2.50
2022-12-16T03:46:26.452Z,-2.49
2022-12-16T03:51:27.847Z,-2.58
2022-12-16T03:56:29.256Z,-2.68
2022-12-16T04:01:30.861Z,-2.57
2022-12-16T04:06:32.431Z,-2.56
2022-12-16T04:11:52.525Z,-2.58
2022-12-16T04:17:13.761Z,-2.54
2022-12-16T04:22:39.776Z,-2.58
2022-12-16T04:27:46.750Z,-2.59
2022-12-16T04:33:14.961Z,-2.52
2022-12-16T04:38:35.721Z,-2.60
2022-12-16T04:43:55.605Z,-2.63
2022-12-16T04:49:15.940Z,-2.66
2022-12-16T04:54:35.732Z,-2.70
2022-12-16T04:59:55.669Z,-2.67
2022-12-16T05:05:15.681Z,-2.65
2022-12-16T05:10:35.600Z,-2.70
2022-12-16T05:15:55.568Z,-2.70
2022-12-16T05:21:20.261Z,-2.72
2022-12-16T05:26:40.360Z,-2.74
2022-12-16T05:32:02.078Z,-2.80
2022-12-16T05:37:21.814Z,-2.71
2022-12-16T05:42:41.776Z,-2.78
2022-12-16T05:48:01.557Z,-2.83
2022-12-16T05:53:21.392Z,-2.76
2022-12-16T05:58:41.743Z,-2.83
2022-12-16T06:04:01.701Z,-2.83
2022-12-16T06:09:22.101Z,-2.86
2022-12-16T06:14:42.249Z,-2.76
2022-12-16T06:20:09.637Z,-2.84
2022-12-16T06:25:29.491Z,-2.86
2022-12-16T06:30:49.506Z,-2.81
2022-12-16T06:36:09.648Z,-2.89
2022-12-16T06:41:29.832Z,-2.92
2022-12-16T06:46:49.956Z,-2.92
2022-12-16T06:52:09.892Z,-2.96
2022-12-16T06:57:46.801Z,-2.95
2022-12-16T07:03:06.890Z,-2.98
2022-12-16T07:08:27.119Z,-2.93
2022-12-16T07:13:47.196Z,-2.91
2022-12-16T07:19:07.211Z,-2.90
2022-12-16T07:24:27.560Z,-2.88
2022-12-16T07:29:47.592Z,-2.92
2022-12-16T07:35:07.600Z,-2.97
2022-12-16T07:40:28.161Z,-2.97
2022-12-16T07:45:48.178Z,-2.98
2022-12-16T07:51:08.308Z,-2.94
2022-12-16T07:56:29.398Z,-2.94
2022-12-16T08:01:49.419Z,-2.87
2022-12-16T08:07:09.617Z,-2.82
2022-12-16T08:12:29.784Z,-2.58
2022-12-16T08:17:49.998Z,-2.45
2022-12-16T08:23:13.278Z,-2.40
2022-12-16T08:28:33.430Z,-2.31
2022-12-16T08:33:53.362Z,-2.19
2022-12-16T08:39:13.205Z,-2.12
2022-12-16T08:44:32.907Z,-2.09
2022-12-16T08:49:56.085Z,-2.10
2022-12-16T08:55:21.526Z,-1.98
2022-12-16T09:00:44.922Z,-2.02
2022-12-16T09:06:04.812Z,-2.00
2022-12-16T09:11:24.630Z,-1.91
2022-12-16T09:16:44.546Z,-1.87
2022-12-16T09:22:04.669Z,-1.83
2022-12-16T09:27:24.699Z,-1.82
2022-12-16T09:32:44.624Z,-1.61
2022-12-16T09:38:06.191Z,-1.45
2022-12-16T09:43:51.545Z,-1.45
2022-12-16T09:49:29.616Z,-1.29
2022-12-16T09:54:54.282Z,-1.17
2022-12-16T10:00:26.959Z,-1.06
2022-12-16T10:05:57.321Z,-0.88
2022-12-16T10:11:30.315Z,-0.69
2022-12-16T10:17:06.104Z,-0.47
2022-12-16T10:22:41.917Z,-0.32
2022-12-16T10:28:06.881Z,-0.08
2022-12-16T10:33:30.502Z,0.22
2022-12-16T10:38:54.317Z,0.72
2022-12-16T10:44:17.785Z,1.09
2022-12-16T10:49:38.990Z,1.81
2022-12-16T10:55:06.371Z,3.49
2022-12-16T11:00:35.163Z,7.47
2022-12-16T11:05:55.205Z,10.58
2022-12-16T11:11:16.414Z,13.32
2022-12-16T11:16:42.862Z,14.82
2022-12-16T11:22:03.427Z,15.58
2022-12-16T11:27:31.536Z,16.15
2022-12-16T11:32:52.243Z,16.58
2022-12-16T11:38:14.767Z,17.79
2022-12-16T11:43:37.201Z,17.96
2022-12-16T11:49:03.326Z,18.91
2022-12-16T11:54:52.153Z,18.74
2022-12-16T12:00:19.702Z,19.73
2022-12-16T12:05:51.911Z,20.00
2022-12-16T12:11:29.525Z,20.09
2022-12-16T12:17:04.407Z,20.59
2022-12-16T12:22:47.325Z,20.23
2022-12-16T12:28:15.860Z,21.22
2022-12-16T12:33:50.201Z,20.99
2022-12-16T12:39:34.731Z,20.81
2022-12-16T12:45:11.575Z,20.87
2022-12-16T12:50:46.576Z,20.70
2022-12-16T12:56:29.921Z,20.40
2022-12-16T13:01:54.175Z,20.84
2022-12-16T13:07:19.711Z,20.36
2022-12-16T13:12:49.365Z,20.13
2022-12-16T13:18:18.145Z,19.81
2022-12-16T13:23:53.021Z,19.25
2022-12-16T13:29:38.358Z,18.52
2022-12-16T13:34:58.503Z,18.00
2022-12-16T13:40:25.101Z,14.19
2022-12-16T13:46:24.153Z,12.09
2022-12-16T13:52:03.885Z,7.79
2022-12-16T13:57:25.990Z,5.72
2022-12-16T14:02:51.323Z,4.69
2022-12-16T14:08:11.960Z,4.03
2022-12-16T14:14:05.049Z,3.63
2022-12-16T14:19:51.371Z,3.25
2022-12-16T14:25:12.036Z,2.94
2022-12-16T14:30:44.326Z,2.67
2022-12-16T14:36:08.213Z,2.48
2022-12-16T14:41:39.105Z,2.22
2022-12-16T14:46:59.484Z,2.04
2022-12-16T14:52:19.695Z,1.89
2022-12-16T14:57:49.326Z,1.66
2022-12-16T15:03:11.888Z,1.50
2022-12-16T15:08:32.982Z,1.49
2022-12-16T15:13:57.816Z,1.37
2022-12-16T15:19:22.465Z,1.27
2022-12-16T15:24:44.060Z,1.24
2022-12-16T15:30:04.364Z,0.94
2022-12-16T15:35:24.587Z,0.73
2022-12-16T15:40:52.805Z,0.62
2022-12-16T15:46:12.878Z,0.61
2022-12-16T15:51:42.945Z,0.60
2022-12-16T15:57:04.224Z,0.61
2022-12-16T16:02:32.352Z,0.37
2022-12-16T16:07:52.207Z,0.33
2022-12-16T16:13:12.232Z,0.27
2022-12-16T16:18:32.155Z,0.22
2022-12-16T16:23:52.157Z,0.15
2022-12-16T16:29:12.193Z,0.10
2022-12-16T16:34:32.433Z,-0.08
2022-12-16T16:39:53.193Z,-0.28
2022-12-16T16:45:15.811Z,-0.14
2022-12-16T16:50:36.007Z,-0.19
2022-12-16T16:55:56.183Z,-0.25
2022-12-16T17:01:16.571Z,-0.31
2022-12-16T17:06:36.701Z,-0.38
2022-12-16T17:11:57.460Z,-0.34
2022-12-16T17:17:17.789Z,-0.41
2022-12-16T17:22:38.042Z,-0.55
2022-12-16T17:28:02.770Z,-0.56
2022-12-16T17:33:31.878Z,-0.48
2022-12-16T17:38:57.339Z,-0.59
2022-12-16T17:44:17.618Z,-0.50
2022-12-16T17:49:37.737Z,-0.50
2022-12-16T17:54:58.165Z,-0.57
2022-12-16T18:00:18.376Z,-0.70
2022-12-16T18:05:44.272Z,-0.71
2022-12-16T18:11:05.053Z,-0.74
2022-12-16T18:16:25.378Z,-0.80
2022-12-16T18:21:45.800Z,-0.85
2022-12-16T18:27:06.048Z,-0.84
2022-12-16T18:32:28.317Z,-0.87
2022-12-16T18:37:50.708Z,-1.01
2022-12-16T18:43:10.856Z,-0.94
2022-12-16T18:48:31.056Z,-1.00
2022-12-16T18:53:51.218Z,-0.98
2022-12-16T18:59:11.918Z,-0.97
2022-12-16T19:04:31.843Z,-0.98
2022-12-16T19:09:51.971Z,-0.99
2022-12-16T19:15:12.439Z,-1.01
2022-12-16T19:20:33.281Z,-1.06
2022-12-16T19:25:53.470Z,-1.12
2022-12-16T19:31:14.057Z,-1.10
2022-12-16T19:36:34.112Z,-1.11
2022-12-16T19:41:56.204Z,-1.07
2022-12-16T19:47:16.637Z,-1.09
2022-12-16T19:52:37.171Z,-1.10
2022-12-16T19:57:57.913Z,-1.08
2022-12-16T20:03:17.990Z,-1.12
2022-12-16T20:08:37.948Z,-1.04
2022-12-16T20:13:57.844Z,-1.17
2022-12-16T20:19:18.159Z,-1.19
2022-12-16T20:24:38.070Z,-1.20
2022-12-16T20:30:00.193Z,-1.22
2022-12-16T20:35:21.459Z,-1.25
2022-12-16T20:40:41.604Z,-1.35
2022-12-16T20:46:01.849Z,-1.37
2022-12-16T20:57:05.845Z,-1.42
2022-12-16T21:02:33.812Z,-1.50
2022-12-16T21:07:54.156Z,-1.63
2022-12-16T21:13:27.825Z,-1.70
2022-12-16T21:18:47.704Z,-1.60
2022-12-16T21:24:07.762Z,-1.66
2022-12-16T21:29:27.664Z,-1.75
2022-12-16T21:34:47.846Z,-1.79
2022-12-16T21:40:07.947Z,-1.78
2022-12-16T21:45:28.184Z,-1.84
2022-12-16T21:50:48.307Z,-1.94
2022-12-16T21:56:11.611Z,-1.96
2022-12-16T22:01:31.553Z,-1.93
2022-12-16T22:06:51.869Z,-1.93
2022-12-16T22:12:12.316Z,-2.03
2022-12-16T22:17:32.613Z,-2.07
2022-12-16T22:22:52.729Z,-2.14
2022-12-16T22:28:12.463Z,-2.16
2022-12-16T22:33:32.706Z,-2.10
2022-12-16T22:36:21.554Z,-1.38
2022-12-16T22:38:52.461Z,-2.17
2022-12-16T22:44:12.358Z,-2.14
2022-12-16T22:49:34.138Z,-2.11
2022-12-16T22:54:54.000Z,-2.13
2022-12-16T23:00:14.243Z,-2.07
2022-12-16T23:05:34.369Z,-2.13
2022-12-16T23:10:54.739Z,-2.19
2022-12-16T23:16:17.108Z,-2.28
2022-12-16T23:21:38.341Z,-2.36
2022-12-16T23:26:58.454Z,-2.39
2022-12-16T23:32:18.584Z,-2.36
2022-12-16T23:37:38.482Z,-2.43
2022-12-16T23:42:58.456Z,-2.54
2022-12-16T23:48:23.908Z,-2.42
2022-12-16T23:53:44.387Z,-2.51
2022-12-16T23:59:07.767Z,-2.60
